Terminal Aerodrome Forecast
Issued by NWS Twin Cities, MN

Home | Current Version | Previous Version | Text Only | Print | Product List | Glossary On
Versions: 1 2 3 4 5 6 7 8 9 10 11 12 13 14 15 16 17 18 19 20 21
000
FTUS43 KMPX 191120
TAFSTC
TAF
KSTC 191120Z 1912/2012 10004KT 3SM BR OVC003
     FM191600 14013G21KT P6SM BKN007 OVC012
     FM191900 14015G24KT P6SM SCT020 BKN050
     FM200300 15018G26KT P6SM VCSH SCT025 BKN080 WS018/16055KT
     FM200700 16015G25KT P6SM -SHRA VCTS SCT020 BKN040CB
      WS018/17055KT
     FM201000 19013KT P6SM VCSH BKN020=

USA.gov is the U.S. government's official web portal to all federal, state and local government web resources and services.